F/V Pasiphae 2 — FMFN — position and weather

sailwx.info

Track history (hours):
 
Tides and Currents Weather Stations Pressure Air Temp Water Temp Dewpoint Dewpoint Depression Visibility Wind Speed Wind Dir Waves Ship Positions

F/V Pasiphae 2

Last reported at 2018-Jan-11 04:52 UTC. Time now 2018-Feb-21 03:12 UTC.
Position N 47°19' W 003°34'.
Warning: this ship's position is 40 days out of date.

Length 14 m.

Type: Fishing. MMSI: 228224800.

Date/timePositionNaut miles runAvg speedWind from/ knotsBaromVisibWave heightAir tempDewpointWater temp
2018-Jan-11 04:52N 47°19' W 003°34'3 8.3
2018-Jan-11 04:30N 47°22' W 003°32'4 8.5
2018-Jan-11 04:00N 47°25' W 003°30'4 8.5
2018-Jan-11 03:29N 47°29' W 003°27'4 8.5
2018-Jan-11 03:00N 47°33' W 003°24'4 8.7
2018-Jan-11 02:30N 47°37' W 003°22'4 8.9
2018-Jan-11 02:00N 47°42' W 003°22'2 4.1
2018-Jan-11 01:30N 47°44' W 003°22'2 3.9
2018-Jan-11 01:00N 47°42' W 003°22'4 8.4
2018-Jan-11 00:30N 47°38' W 003°22'4 8.1
2018-Jan-11 00:00N 47°34' W 003°24'4 7.3
2018-Jan-10 23:30N 47°31' W 003°26'2 2.8
2018-Jan-10 22:57N 47°30' W 003°29'2 3.6
2018-Jan-10 22:15N 47°31' W 003°32'1 2.2
2018-Jan-10 21:50N 47°31' W 003°30'1 3.5
2018-Jan-10 21:26N 47°30' W 003°31'3 3.2
2018-Jan-10 20:36N 47°27' W 003°30'1 3.6
2018-Jan-10 20:26N 47°27' W 003°30'2 3.7
2018-Jan-10 20:00N 47°26' W 003°28'2 3.5
2018-Jan-10 19:30N 47°24' W 003°27'2 3.8
2018-Jan-10 19:00N 47°22' W 003°28'3 0.2
2018-Jan-10 05:08N 47°25' W 003°27'0 2.0
2018-Jan-10 05:00N 47°25' W 003°27'4 8.4
2018-Jan-10 04:30N 47°29' W 003°25'4 8.6
2018-Jan-10 04:00N 47°33' W 003°23'4 8.4
2018-Jan-10 03:30N 47°38' W 003°22'4 8.7
2018-Jan-10 03:00N 47°42' W 003°22'2 3.6
2018-Jan-10 02:30N 47°44' W 003°22'0 0.1
2018-Jan-10 02:00N 47°44' W 003°22'0 0.3
2018-Jan-10 01:30N 47°44' W 003°22'3 5.3
2018-Jan-10 01:00N 47°41' W 003°22'4 8.9
2018-Jan-10 00:30N 47°37' W 003°23'4 8.4
2018-Jan-10 00:00N 47°33' W 003°25'4 8.5
2018-Jan-09 23:30N 47°29' W 003°28'2 4.1
2018-Jan-09 23:00N 47°27' W 003°29'2 3.8
2018-Jan-09 22:30N 47°25' W 003°27'2 3.8
2018-Jan-09 22:00N 47°23' W 003°27'17 0.4
2018-Jan-08 02:44N 47°40' W 003°22'2 9.1
2018-Jan-08 02:30N 47°42' W 003°22'2 4.1
2018-Jan-08 02:00N 47°44' W 003°22'0 0.0
2018-Jan-08 01:30N 47°44' W 003°22'1 1.7
2018-Jan-08 01:01N 47°43' W 003°22'4 8.3
2018-Jan-08 00:30N 47°39' W 003°22'4 8.6
2018-Jan-08 00:00N 47°34' W 003°23'4 8.4
2018-Jan-07 23:30N 47°30' W 003°25'4 8.1
2018-Jan-07 23:00N 47°26' W 003°26'4 7.9
2018-Jan-07 22:30N 47°23' W 003°28'  
2018-Jan-05 16:14N 47°19' W 003°27'2 8.2
2018-Jan-05 15:59N 47°21' W 003°27'4 8.0
2018-Jan-05 15:31N 47°24' W 003°27'4 7.6
2018-Jan-05 15:01N 47°28' W 003°27'2 4.3
2018-Jan-05 14:30N 47°30' W 003°27'1 3.0
2018-Jan-05 14:01N 47°31' W 003°26'1 3.0
2018-Jan-05 13:30N 47°31' W 003°24'2 3.5
2018-Jan-05 13:01N 47°29' W 003°24'2 3.6
2018-Jan-05 12:30N 47°28' W 003°26'2 3.7
2018-Jan-05 12:00N 47°27' W 003°27'2 3.0
2018-Jan-05 11:30N 47°25' W 003°27'2 4.1
2018-Jan-05 11:00N 47°25' W 003°24'2 3.2
2018-Jan-05 10:31N 47°25' W 003°22'2 3.3
2018-Jan-05 10:00N 47°25' W 003°19'2 3.5
2018-Jan-05 09:31N 47°26' W 003°17'1 2.4
2018-Jan-05 09:01N 47°24' W 003°16'2 3.1
2018-Jan-05 08:31N 47°25' W 003°18'1 1.9
2018-Jan-05 08:01N 47°25' W 003°19'1 2.0
2018-Jan-05 07:31N 47°26' W 003°18'1 2.8
2018-Jan-05 07:01N 47°25' W 003°19'2 3.2
2018-Jan-05 06:31N 47°24' W 003°16'2 3.1
2018-Jan-05 06:00N 47°25' W 003°14'2 3.1
2018-Jan-05 05:31N 47°26' W 003°17'2 3.6
2018-Jan-05 05:00N 47°25' W 003°19'2 3.5
2018-Jan-05 04:30N 47°25' W 003°22'3 6.2
2018-Jan-05 04:01N 47°28' W 003°22'4 8.1
2018-Jan-05 03:30N 47°32' W 003°23'4 8.2
2018-Jan-05 03:01N 47°36' W 003°23'4 8.5
2018-Jan-05 02:30N 47°41' W 003°22'3 6.1
2018-Jan-05 02:00N 47°44' W 003°22'  
Track history (hours):
 
Tides and Currents Weather Stations Pressure Air Temp Water Temp Dewpoint Dewpoint Depression Visibility Wind Speed Wind Dir Waves Ship Positions

F/V Pasiphae 2

Last reported at 2018-Jan-11 04:52 UTC. Time now 2018-Feb-21 03:12 UTC.
Position N 47°19' W 003°34'.
Warning: this ship's position is 40 days out of date.

Length 14 m.

Type: Fishing. MMSI: 228224800.

Date/timePositionNaut miles runAvg speedWind from/ knotsBaromVisibWave heightAir tempDewpointWater temp
2018-Jan-11 04:52N 47°19' W 003°34'3 8.3
2018-Jan-11 04:30N 47°22' W 003°32'4 8.5
2018-Jan-11 04:00N 47°25' W 003°30'4 8.5
2018-Jan-11 03:29N 47°29' W 003°27'4 8.5
2018-Jan-11 03:00N 47°33' W 003°24'4 8.7
2018-Jan-11 02:30N 47°37' W 003°22'4 8.9
2018-Jan-11 02:00N 47°42' W 003°22'2 4.1
2018-Jan-11 01:30N 47°44' W 003°22'2 3.9
2018-Jan-11 01:00N 47°42' W 003°22'4 8.4
2018-Jan-11 00:30N 47°38' W 003°22'4 8.1
2018-Jan-11 00:00N 47°34' W 003°24'4 7.3
2018-Jan-10 23:30N 47°31' W 003°26'2 2.8
2018-Jan-10 22:57N 47°30' W 003°29'2 3.6
2018-Jan-10 22:15N 47°31' W 003°32'1 2.2
2018-Jan-10 21:50N 47°31' W 003°30'1 3.5
2018-Jan-10 21:26N 47°30' W 003°31'3 3.2
2018-Jan-10 20:36N 47°27' W 003°30'1 3.6
2018-Jan-10 20:26N 47°27' W 003°30'2 3.7
2018-Jan-10 20:00N 47°26' W 003°28'2 3.5
2018-Jan-10 19:30N 47°24' W 003°27'2 3.8
2018-Jan-10 19:00N 47°22' W 003°28'3 0.2
2018-Jan-10 05:08N 47°25' W 003°27'0 2.0
2018-Jan-10 05:00N 47°25' W 003°27'4 8.4
2018-Jan-10 04:30N 47°29' W 003°25'4 8.6
2018-Jan-10 04:00N 47°33' W 003°23'4 8.4
2018-Jan-10 03:30N 47°38' W 003°22'4 8.7
2018-Jan-10 03:00N 47°42' W 003°22'2 3.6
2018-Jan-10 02:30N 47°44' W 003°22'0 0.1
2018-Jan-10 02:00N 47°44' W 003°22'0 0.3
2018-Jan-10 01:30N 47°44' W 003°22'3 5.3
2018-Jan-10 01:00N 47°41' W 003°22'4 8.9
2018-Jan-10 00:30N 47°37' W 003°23'4 8.4
2018-Jan-10 00:00N 47°33' W 003°25'4 8.5
2018-Jan-09 23:30N 47°29' W 003°28'2 4.1
2018-Jan-09 23:00N 47°27' W 003°29'2 3.8
2018-Jan-09 22:30N 47°25' W 003°27'2 3.8
2018-Jan-09 22:00N 47°23' W 003°27'17 0.4
2018-Jan-08 02:44N 47°40' W 003°22'2 9.1
2018-Jan-08 02:30N 47°42' W 003°22'2 4.1
2018-Jan-08 02:00N 47°44' W 003°22'0 0.0
2018-Jan-08 01:30N 47°44' W 003°22'1 1.7
2018-Jan-08 01:01N 47°43' W 003°22'4 8.3
2018-Jan-08 00:30N 47°39' W 003°22'4 8.6
2018-Jan-08 00:00N 47°34' W 003°23'4 8.4
2018-Jan-07 23:30N 47°30' W 003°25'4 8.1
2018-Jan-07 23:00N 47°26' W 003°26'4 7.9
2018-Jan-07 22:30N 47°23' W 003°28'  
2018-Jan-05 16:14N 47°19' W 003°27'2 8.2
2018-Jan-05 15:59N 47°21' W 003°27'4 8.0
2018-Jan-05 15:31N 47°24' W 003°27'4 7.6
2018-Jan-05 15:01N 47°28' W 003°27'2 4.3
2018-Jan-05 14:30N 47°30' W 003°27'1 3.0
2018-Jan-05 14:01N 47°31' W 003°26'1 3.0
2018-Jan-05 13:30N 47°31' W 003°24'2 3.5
2018-Jan-05 13:01N 47°29' W 003°24'2 3.6
2018-Jan-05 12:30N 47°28' W 003°26'2 3.7
2018-Jan-05 12:00N 47°27' W 003°27'2 3.0
2018-Jan-05 11:30N 47°25' W 003°27'2 4.1
2018-Jan-05 11:00N 47°25' W 003°24'2 3.2
2018-Jan-05 10:31N 47°25' W 003°22'2 3.3
2018-Jan-05 10:00N 47°25' W 003°19'2 3.5
2018-Jan-05 09:31N 47°26' W 003°17'1 2.4
2018-Jan-05 09:01N 47°24' W 003°16'2 3.1
2018-Jan-05 08:31N 47°25' W 003°18'1 1.9
2018-Jan-05 08:01N 47°25' W 003°19'1 2.0
2018-Jan-05 07:31N 47°26' W 003°18'1 2.8
2018-Jan-05 07:01N 47°25' W 003°19'2 3.2
2018-Jan-05 06:31N 47°24' W 003°16'2 3.1
2018-Jan-05 06:00N 47°25' W 003°14'2 3.1
2018-Jan-05 05:31N 47°26' W 003°17'2 3.6
2018-Jan-05 05:00N 47°25' W 003°19'2 3.5
2018-Jan-05 04:30N 47°25' W 003°22'3 6.2
2018-Jan-05 04:01N 47°28' W 003°22'4 8.1
2018-Jan-05 03:30N 47°32' W 003°23'4 8.2
2018-Jan-05 03:01N 47°36' W 003°23'4 8.5
2018-Jan-05 02:30N 47°41' W 003°22'3 6.1
2018-Jan-05 02:00N 47°44' W 003°22'  

Dump ship's entire track history